createdAt,value
2022-08-17T00:02:26.341Z,2.45
2022-08-17T00:04:55.372Z,2.00
2022-08-17T00:07:23.167Z,2.00
2022-08-17T00:09:50.330Z,2.50
2022-08-17T00:12:43.209Z,2.40
2022-08-17T00:15:10.399Z,2.70
2022-08-17T00:17:38.535Z,2.50
2022-08-17T00:20:06.648Z,2.37
2022-08-17T00:22:36.303Z,2.65
2022-08-17T00:25:10.262Z,2.30
2022-08-17T00:27:37.229Z,2.40
2022-08-17T00:30:10.361Z,2.25
2022-08-17T00:33:11.612Z,2.53
2022-08-17T00:35:32.160Z,2.20
2022-08-17T00:37:59.122Z,2.55
2022-08-17T00:40:26.413Z,2.80
2022-08-17T00:43:44.239Z,2.53
2022-08-17T00:46:15.497Z,2.60
2022-08-17T00:48:44.077Z,2.60
2022-08-17T00:53:50.146Z,3.08
2022-08-17T00:56:25.104Z,2.65
2022-08-17T00:58:54.526Z,2.80
2022-08-17T01:01:22.303Z,2.88
2022-08-17T01:03:51.774Z,2.55
2022-08-17T01:06:19.642Z,2.60
2022-08-17T01:08:46.939Z,2.72
2022-08-17T01:11:13.976Z,2.90
2022-08-17T01:13:43.163Z,3.15
2022-08-17T01:16:24.541Z,3.15
2022-08-17T01:19:00.662Z,2.55
2022-08-17T01:21:27.870Z,3.10
2022-08-17T01:23:55.522Z,2.80
2022-08-17T01:26:26.586Z,2.77
2022-08-17T01:28:55.923Z,2.65
2022-08-17T01:31:25.311Z,2.70
2022-08-17T01:33:53.368Z,2.70
2022-08-17T01:36:20.602Z,2.45
2022-08-17T01:38:47.725Z,2.28
2022-08-17T01:41:16.409Z,2.53
2022-08-17T01:43:55.769Z,2.50
2022-08-17T01:46:27.235Z,2.60
2022-08-17T01:48:56.319Z,2.33
2022-08-17T01:51:25.949Z,2.50
2022-08-17T01:53:57.572Z,2.38
2022-08-17T01:56:26.469Z,2.45
2022-08-17T01:58:53.741Z,2.70
2022-08-17T02:01:29.959Z,2.70
2022-08-17T02:04:00.898Z,2.30
2022-08-17T02:06:43.954Z,2.55
2022-08-17T02:09:17.059Z,2.28
2022-08-17T02:11:45.300Z,2.67
2022-08-17T02:14:13.538Z,2.33
2022-08-17T02:16:41.734Z,2.00
2022-08-17T02:19:14.594Z,2.60
2022-08-17T02:21:44.765Z,2.53
2022-08-17T02:24:17.679Z,2.50
2022-08-17T02:27:05.567Z,2.40
2022-08-17T02:29:32.657Z,2.58
2022-08-17T02:32:00.261Z,2.60
2022-08-17T02:34:27.593Z,2.70
2022-08-17T02:36:54.688Z,2.47
2022-08-17T02:39:21.788Z,2.30
2022-08-17T02:41:49.107Z,2.75
2022-08-17T02:44:39.189Z,2.70
2022-08-17T02:47:04.218Z,2.33
2022-08-17T02:49:31.393Z,2.20
2022-08-17T02:51:59.015Z,2.47
2022-08-17T02:54:41.067Z,2.40
2022-08-17T02:57:10.431Z,2.40
2022-08-17T02:59:48.319Z,2.30
2022-08-17T03:04:43.099Z,2.20
2022-08-17T03:07:10.095Z,1.98
2022-08-17T03:09:37.782Z,2.00
2022-08-17T03:12:08.244Z,2.10
2022-08-17T03:14:41.455Z,2.50
2022-08-17T03:17:10.677Z,2.25
2022-08-17T03:19:38.866Z,1.90
2022-08-17T03:22:36.641Z,2.00
2022-08-17T03:24:58.093Z,2.55
2022-08-17T03:27:25.084Z,2.47
2022-08-17T03:29:52.091Z,2.50
2022-08-17T03:32:20.779Z,1.95
2022-08-17T03:34:48.220Z,2.00
2022-08-17T03:37:15.241Z,2.20
2022-08-17T03:39:42.980Z,2.10
2022-08-17T03:42:32.028Z,2.10
2022-08-17T03:45:01.324Z,2.35
2022-08-17T03:47:47.186Z,2.70
2022-08-17T03:50:34.709Z,2.30
2022-08-17T03:53:22.390Z,2.87
2022-08-17T03:56:08.075Z,2.67
2022-08-17T03:58:37.394Z,2.30
2022-08-17T04:01:06.109Z,2.15
2022-08-17T04:03:33.646Z,2.13
2022-08-17T04:06:02.231Z,2.13
2022-08-17T04:08:30.404Z,2.00
2022-08-17T04:10:58.910Z,2.00
2022-08-17T04:15:54.038Z,1.83
2022-08-17T04:18:21.053Z,1.73
2022-08-17T04:20:48.081Z,1.60
2022-08-17T04:23:17.830Z,1.30
2022-08-17T04:25:49.089Z,1.30
2022-08-17T04:28:17.900Z,1.40
2022-08-17T04:30:46.899Z,1.27
2022-08-17T04:33:25.854Z,1.65
2022-08-17T04:35:59.281Z,1.50
2022-08-17T04:38:29.703Z,1.30
2022-08-17T04:41:17.408Z,2.05
2022-08-17T04:43:46.509Z,1.58
2022-08-17T04:46:16.841Z,1.73
2022-08-17T04:48:49.740Z,1.80
2022-08-17T04:51:20.140Z,1.77
2022-08-17T04:53:53.851Z,1.60
2022-08-17T04:56:22.094Z,1.67
2022-08-17T04:58:50.982Z,1.75
2022-08-17T05:01:22.953Z,1.70
2022-08-17T05:03:52.207Z,1.35
2022-08-17T05:06:19.341Z,1.60
2022-08-17T05:08:46.784Z,1.17
2022-08-17T05:11:14.219Z,1.40
2022-08-17T05:13:41.663Z,1.20
2022-08-17T05:16:09.197Z,1.42
2022-08-17T05:18:38.905Z,1.73
2022-08-17T05:21:06.898Z,1.20
2022-08-17T05:23:42.667Z,1.42
2022-08-17T05:26:22.562Z,1.33
2022-08-17T05:28:55.488Z,1.27
2022-08-17T05:31:24.812Z,1.27
2022-08-17T05:33:52.494Z,1.40
2022-08-17T05:36:38.116Z,1.40
2022-08-17T05:39:07.355Z,1.23
2022-08-17T05:41:34.653Z,1.60
2022-08-17T05:44:05.520Z,1.15
2022-08-17T05:46:38.429Z,1.73
2022-08-17T05:49:08.189Z,1.15
2022-08-17T05:51:41.695Z,1.23
2022-08-17T05:54:28.019Z,1.15
2022-08-17T05:57:01.602Z,1.38
2022-08-17T05:59:48.610Z,1.50
2022-08-17T06:02:47.518Z,1.67
2022-08-17T06:05:22.705Z,1.77
2022-08-17T06:08:10.060Z,1.70
2022-08-17T06:10:46.551Z,1.98
2022-08-17T06:13:24.463Z,1.77
2022-08-17T06:15:57.095Z,1.80
2022-08-17T06:18:26.930Z,2.00
2022-08-17T06:20:57.176Z,1.80
2022-08-17T06:23:30.921Z,1.80
2022-08-17T06:26:01.432Z,1.98
2022-08-17T06:28:33.032Z,1.70
2022-08-17T06:31:04.060Z,1.90
2022-08-17T06:33:34.350Z,1.80
2022-08-17T06:36:02.687Z,1.55
2022-08-17T06:38:42.961Z,1.70
2022-08-17T06:41:26.791Z,1.77
2022-08-17T06:44:03.933Z,1.63
2022-08-17T06:46:53.922Z,1.55
2022-08-17T06:49:21.949Z,1.73
2022-08-17T06:54:24.050Z,1.80
2022-08-17T06:57:06.160Z,1.60
2022-08-17T06:59:55.843Z,1.90
2022-08-17T07:03:02.377Z,1.88
2022-08-17T07:05:39.042Z,1.52
2022-08-17T07:08:18.577Z,1.48
2022-08-17T07:10:51.459Z,1.80
2022-08-17T07:13:25.692Z,1.45
2022-08-17T07:16:07.864Z,1.98
2022-08-17T07:18:35.324Z,1.30
2022-08-17T07:21:12.969Z,1.77
2022-08-17T07:23:46.054Z,1.42
2022-08-17T07:26:13.493Z,1.80
2022-08-17T07:28:41.107Z,1.85
2022-08-17T07:31:09.123Z,1.80
2022-08-17T07:33:36.904Z,2.08
2022-08-17T07:36:04.486Z,1.90
2022-08-17T07:38:33.011Z,2.00
2022-08-17T07:43:35.197Z,1.50
2022-08-17T07:46:29.875Z,2.00
2022-08-17T07:49:07.647Z,1.77
2022-08-17T07:51:42.463Z,1.50
2022-08-17T07:54:15.860Z,1.98
2022-08-17T07:56:43.317Z,1.92
2022-08-17T07:59:10.587Z,1.50
2022-08-17T08:01:41.726Z,1.60
2022-08-17T08:07:17.545Z,1.73
2022-08-17T08:09:46.979Z,1.60
2022-08-17T08:12:32.724Z,1.65
2022-08-17T08:15:02.627Z,1.20
2022-08-17T08:17:35.631Z,1.60
2022-08-17T08:20:42.480Z,1.50
2022-08-17T08:22:55.956Z,1.50
2022-08-17T08:25:29.429Z,1.50
2022-08-17T08:28:15.016Z,1.33
2022-08-17T08:30:47.181Z,1.65
2022-08-17T08:33:20.195Z,1.40
2022-08-17T08:35:59.158Z,1.50
2022-08-17T08:38:27.144Z,2.17
2022-08-17T08:41:13.333Z,1.40
2022-08-17T08:44:00.812Z,1.50
2022-08-17T08:46:44.797Z,1.50
2022-08-17T08:50:02.585Z,1.77
2022-08-17T08:52:36.182Z,1.65
2022-08-17T08:55:07.810Z,1.50
2022-08-17T08:57:39.673Z,1.65
2022-08-17T09:00:08.642Z,1.63
2022-08-17T09:02:54.978Z,1.55
2022-08-17T09:05:22.391Z,1.60
2022-08-17T09:07:50.544Z,1.35
2022-08-17T09:10:41.242Z,1.52
2022-08-17T09:13:14.469Z,1.30
2022-08-17T09:15:50.215Z,1.60
2022-08-17T09:19:02.508Z,1.20
2022-08-17T09:21:22.531Z,1.67
2022-08-17T09:24:04.865Z,1.50
2022-08-17T09:26:46.450Z,1.30
2022-08-17T09:29:16.133Z,1.70
2022-08-17T09:31:57.527Z,1.40
2022-08-17T09:34:32.108Z,1.52
2022-08-17T09:37:07.434Z,1.65
2022-08-17T09:39:42.900Z,1.30
2022-08-17T09:42:22.791Z,1.67
2022-08-17T09:44:56.046Z,1.60
2022-08-17T09:47:23.424Z,1.77
2022-08-17T09:49:53.526Z,1.25
2022-08-17T09:52:23.649Z,1.58
2022-08-17T09:54:53.006Z,1.70
2022-08-17T09:57:31.322Z,1.33
2022-08-17T10:00:25.024Z,1.30
2022-08-17T10:03:09.867Z,1.20
2022-08-17T10:05:55.000Z,1.70
2022-08-17T10:08:52.856Z,1.40
2022-08-17T10:11:53.238Z,1.15
2022-08-17T10:14:54.234Z,1.50
2022-08-17T10:17:37.933Z,1.33
2022-08-17T10:20:17.077Z,1.30
2022-08-17T10:23:09.104Z,1.23
2022-08-17T10:26:14.329Z,1.40
2022-08-17T10:28:52.816Z,1.15
2022-08-17T10:34:45.357Z,1.55
2022-08-17T10:37:12.325Z,1.48
2022-08-17T10:39:57.500Z,1.42
2022-08-17T10:42:43.614Z,1.70
2022-08-17T10:45:29.628Z,1.45
2022-08-17T10:48:07.620Z,1.40
2022-08-17T10:50:47.515Z,1.60
2022-08-17T10:53:40.745Z,1.40
2022-08-17T10:56:13.928Z,1.20
2022-08-17T10:58:49.663Z,1.30
2022-08-17T11:01:21.873Z,1.17
2022-08-17T11:03:56.694Z,1.38
2022-08-17T11:06:47.703Z,1.15
2022-08-17T11:10:00.453Z,1.08
2022-08-17T11:12:45.422Z,1.20
2022-08-17T11:15:39.150Z,1.17
2022-08-17T11:18:12.951Z,1.20
2022-08-17T11:20:59.719Z,1.10
2022-08-17T11:23:38.486Z,1.30
2022-08-17T11:26:30.593Z,1.10
2022-08-17T11:29:02.151Z,1.30
2022-08-17T11:31:38.296Z,1.02
2022-08-17T11:34:28.888Z,1.40
2022-08-17T11:37:26.337Z,1.40
2022-08-17T11:40:20.621Z,1.30
2022-08-17T11:43:06.764Z,1.40
2022-08-17T11:46:02.091Z,1.00
2022-08-17T11:49:00.402Z,1.30
2022-08-17T11:51:53.349Z,1.52
2022-08-17T11:54:33.391Z,1.30
2022-08-17T11:57:24.141Z,1.20
2022-08-17T11:59:53.957Z,1.25
2022-08-17T12:02:29.805Z,1.38
2022-08-17T12:05:02.723Z,1.10
2022-08-17T12:07:33.077Z,1.20
2022-08-17T12:10:01.095Z,1.05
2022-08-17T12:12:35.502Z,1.60
2022-08-17T12:15:11.858Z,1.25
2022-08-17T12:17:42.736Z,1.08
2022-08-17T12:20:27.797Z,1.30
2022-08-17T12:23:19.797Z,0.95
2022-08-17T12:25:56.651Z,1.13
2022-08-17T12:28:27.999Z,1.52
2022-08-17T12:30:59.706Z,1.45
2022-08-17T12:33:28.916Z,1.00
2022-08-17T12:36:05.420Z,1.73
2022-08-17T12:38:38.199Z,1.35
2022-08-17T12:41:25.860Z,1.08
2022-08-17T12:44:20.538Z,0.93
2022-08-17T12:46:50.036Z,0.98
2022-08-17T12:49:22.963Z,1.02
2022-08-17T12:51:53.453Z,1.10
2022-08-17T12:54:45.422Z,1.35
2022-08-17T12:57:23.641Z,1.08
2022-08-17T13:00:00.314Z,1.10
2022-08-17T13:02:43.541Z,1.17
2022-08-17T13:05:20.677Z,1.30
2022-08-17T13:07:48.022Z,1.00
2022-08-17T13:10:32.562Z,1.10
2022-08-17T13:13:05.198Z,1.05
2022-08-17T13:15:36.208Z,1.20
2022-08-17T13:18:07.937Z,1.00
2022-08-17T13:20:36.359Z,1.20
2022-08-17T13:23:11.928Z,1.30
2022-08-17T13:25:39.419Z,1.33
2022-08-17T13:28:06.396Z,1.00
2022-08-17T13:30:33.794Z,1.08
2022-08-17T13:33:04.705Z,0.90
2022-08-17T13:35:47.080Z,0.80
2022-08-17T13:38:41.130Z,0.90
2022-08-17T13:41:08.851Z,1.15
2022-08-17T13:43:45.631Z,0.90
2022-08-17T13:46:26.597Z,1.20
2022-08-17T13:49:02.689Z,1.30
2022-08-17T13:51:43.948Z,1.00
2022-08-17T13:54:34.265Z,1.00
2022-08-17T13:57:03.297Z,0.98
2022-08-17T13:59:53.678Z,0.90
2022-08-17T14:02:27.577Z,0.80
2022-08-17T14:04:56.576Z,0.90
2022-08-17T14:07:28.500Z,0.93
2022-08-17T14:10:04.472Z,0.75
2022-08-17T14:12:33.871Z,1.13
2022-08-17T14:15:01.599Z,0.80
2022-08-17T14:17:29.461Z,1.00
2022-08-17T14:19:56.429Z,0.82
2022-08-17T14:22:29.668Z,0.98
2022-08-17T14:24:57.894Z,1.10
2022-08-17T14:27:28.064Z,1.20
2022-08-17T14:29:56.405Z,1.08
2022-08-17T14:32:32.680Z,1.17
2022-08-17T14:35:00.805Z,1.10
2022-08-17T14:37:29.639Z,1.35
2022-08-17T14:39:58.791Z,1.48
2022-08-17T14:42:29.578Z,1.08
2022-08-17T14:44:58.784Z,1.00
2022-08-17T14:47:27.585Z,0.88
2022-08-17T14:49:54.646Z,1.20
2022-08-17T14:52:22.139Z,0.82
2022-08-17T14:54:51.329Z,1.00
2022-08-17T14:57:34.306Z,0.98
2022-08-17T15:00:02.542Z,1.00
2022-08-17T15:02:31.073Z,0.93
2022-08-17T15:04:59.907Z,0.90
2022-08-17T15:07:30.095Z,0.73
2022-08-17T15:10:00.732Z,0.82
2022-08-17T15:12:32.306Z,0.70
2022-08-17T15:15:01.071Z,0.85
2022-08-17T15:17:45.126Z,0.95
2022-08-17T15:20:25.340Z,0.90
2022-08-17T15:22:56.115Z,0.80
2022-08-17T15:25:25.141Z,0.90
2022-08-17T15:27:52.529Z,0.80
2022-08-17T15:30:20.277Z,0.90
2022-08-17T15:32:54.525Z,0.88
2022-08-17T15:35:29.191Z,0.70
2022-08-17T15:38:07.851Z,0.63
2022-08-17T15:40:40.734Z,0.60
2022-08-17T15:43:11.339Z,0.60
2022-08-17T15:45:39.233Z,0.90
2022-08-17T15:48:06.968Z,0.85
2022-08-17T15:50:34.073Z,0.68
2022-08-17T15:53:02.002Z,0.80
2022-08-17T15:55:31.006Z,0.70
2022-08-17T15:57:58.087Z,0.70
2022-08-17T16:00:28.234Z,0.73
2022-08-17T16:03:16.041Z,0.80
2022-08-17T16:05:43.927Z,0.65
2022-08-17T16:08:11.623Z,0.77
2022-08-17T16:10:39.025Z,0.60
2022-08-17T16:13:06.168Z,0.70
2022-08-17T16:15:53.054Z,0.60
2022-08-17T16:18:28.313Z,0.40
2022-08-17T16:20:55.544Z,0.60
2022-08-17T16:23:22.537Z,0.73
2022-08-17T16:25:53.804Z,0.63
2022-08-17T16:28:23.401Z,0.75
2022-08-17T16:31:03.854Z,0.60
2022-08-17T16:33:30.842Z,0.63
2022-08-17T16:35:57.944Z,0.60
2022-08-17T16:38:25.068Z,0.50
2022-08-17T16:40:52.046Z,0.70
2022-08-17T16:43:19.310Z,0.50
2022-08-17T16:45:51.798Z,0.60
2022-08-17T16:48:19.751Z,0.60
2022-08-17T16:51:02.933Z,1.00
2022-08-17T16:53:31.489Z,0.90
2022-08-17T16:55:58.564Z,0.60
2022-08-17T16:58:25.748Z,0.80
2022-08-17T17:00:53.163Z,0.80
2022-08-17T17:03:24.857Z,1.00
2022-08-17T17:05:59.876Z,0.85
2022-08-17T17:08:37.488Z,0.70
2022-08-17T17:11:33.682Z,0.70
2022-08-17T17:14:09.249Z,0.60
2022-08-17T17:16:53.393Z,0.70
2022-08-17T17:19:35.325Z,0.50
2022-08-17T17:22:16.355Z,0.68
2022-08-17T17:25:20.230Z,0.80
2022-08-17T17:27:53.712Z,0.60
2022-08-17T17:30:29.612Z,0.70
2022-08-17T17:33:11.029Z,0.80
2022-08-17T17:35:54.493Z,0.70
2022-08-17T17:38:31.243Z,0.60
2022-08-17T17:41:11.154Z,0.70
2022-08-17T17:43:40.364Z,0.40
2022-08-17T17:46:29.099Z,0.77
2022-08-17T17:48:57.599Z,0.88
2022-08-17T17:52:06.778Z,0.85
2022-08-17T17:54:40.616Z,1.20
2022-08-17T17:57:11.579Z,0.70
2022-08-17T18:00:16.961Z,0.73
2022-08-17T18:03:03.638Z,0.80
2022-08-17T18:05:47.299Z,0.80
2022-08-17T18:08:35.641Z,0.95
2022-08-17T18:11:14.728Z,0.60
2022-08-17T18:13:54.200Z,0.60
2022-08-17T18:16:22.553Z,1.08
2022-08-17T18:18:52.285Z,0.80
2022-08-17T18:21:27.497Z,0.60
2022-08-17T18:23:57.254Z,0.88
2022-08-17T18:26:36.458Z,0.93
2022-08-17T18:29:24.620Z,0.80
2022-08-17T18:32:24.365Z,0.80
2022-08-17T18:35:16.328Z,1.13
2022-08-17T18:37:49.575Z,1.02
2022-08-17T18:40:16.677Z,1.00
2022-08-17T18:43:00.643Z,0.77
2022-08-17T18:45:44.642Z,1.00
2022-08-17T18:48:22.605Z,0.93
2022-08-17T18:50:53.545Z,1.00
2022-08-17T18:53:33.278Z,0.98
2022-08-17T18:56:26.301Z,1.10
2022-08-17T18:59:16.781Z,1.20
2022-08-17T19:01:59.977Z,1.20
2022-08-17T19:04:36.375Z,1.10
2022-08-17T19:07:30.080Z,1.05
2022-08-17T19:10:02.884Z,1.02
2022-08-17T19:12:38.282Z,1.20
2022-08-17T19:15:08.054Z,1.00
2022-08-17T19:17:53.248Z,1.15
2022-08-17T19:20:28.675Z,1.10
2022-08-17T19:23:17.422Z,1.15
2022-08-17T19:25:54.331Z,1.20
2022-08-17T19:28:25.735Z,1.30
2022-08-17T19:31:04.529Z,1.13
2022-08-17T19:33:32.081Z,1.13
2022-08-17T19:36:06.537Z,1.30
2022-08-17T19:38:52.994Z,0.80
2022-08-17T19:41:28.236Z,0.80
2022-08-17T19:43:58.334Z,0.93
2022-08-17T19:47:00.748Z,1.00
2022-08-17T19:49:46.372Z,1.20
2022-08-17T19:52:31.746Z,1.08
2022-08-17T19:55:20.250Z,1.15
2022-08-17T19:58:11.413Z,1.20
2022-08-17T20:00:51.034Z,1.00
2022-08-17T20:03:49.982Z,1.10
2022-08-17T20:06:17.685Z,1.10
2022-08-17T20:08:59.166Z,1.23
2022-08-17T20:11:58.623Z,1.00
2022-08-17T20:14:37.865Z,1.02
2022-08-17T20:17:05.830Z,1.38
2022-08-17T20:19:57.422Z,1.30
2022-08-17T20:22:58.652Z,1.40
2022-08-17T20:25:32.548Z,1.33
2022-08-17T20:28:12.420Z,1.58
2022-08-17T20:30:42.675Z,1.55
2022-08-17T20:33:23.816Z,1.50
2022-08-17T20:36:24.481Z,1.30
2022-08-17T20:38:59.825Z,1.40
2022-08-17T20:41:29.918Z,1.38
2022-08-17T20:43:57.043Z,1.20
2022-08-17T20:46:36.027Z,1.15
2022-08-17T20:49:19.137Z,0.98
2022-08-17T20:52:01.518Z,1.10
2022-08-17T20:54:41.101Z,1.10
2022-08-17T20:57:14.156Z,1.27
2022-08-17T20:59:45.123Z,1.00
2022-08-17T21:02:21.699Z,1.25
2022-08-17T21:04:52.957Z,1.00
2022-08-17T21:07:42.849Z,1.30
2022-08-17T21:10:13.907Z,0.85
2022-08-17T21:12:48.706Z,1.08
2022-08-17T21:15:21.927Z,1.10
2022-08-17T21:17:59.200Z,0.90
2022-08-17T21:20:32.178Z,1.10
2022-08-17T21:23:11.896Z,1.02
2022-08-17T21:25:48.907Z,1.10
2022-08-17T21:29:01.136Z,1.20
2022-08-17T21:32:03.268Z,1.10
2022-08-17T21:34:43.579Z,0.88
2022-08-17T21:37:23.525Z,0.90
2022-08-17T21:40:18.497Z,0.80
2022-08-17T21:42:49.078Z,1.00
2022-08-17T21:45:25.329Z,0.80
2022-08-17T21:48:20.216Z,0.90
2022-08-17T21:51:00.931Z,0.95
2022-08-17T21:53:56.239Z,1.00
2022-08-17T21:56:36.305Z,1.10
2022-08-17T21:59:07.574Z,0.82
2022-08-17T22:01:50.636Z,0.90
2022-08-17T22:04:29.264Z,1.15
2022-08-17T22:06:59.711Z,1.20
2022-08-17T22:09:41.645Z,1.65
2022-08-17T22:12:17.270Z,1.23
2022-08-17T22:14:53.424Z,1.17
2022-08-17T22:17:28.879Z,1.42
2022-08-17T22:20:09.348Z,1.45
2022-08-17T22:23:12.626Z,1.33
2022-08-17T22:25:56.058Z,1.20
2022-08-17T22:28:46.328Z,1.58
2022-08-17T22:31:26.265Z,1.42
2022-08-17T22:33:59.905Z,1.40
2022-08-17T22:36:39.022Z,1.33
2022-08-17T22:39:08.953Z,1.30
2022-08-17T22:41:43.717Z,1.23
2022-08-17T22:44:19.670Z,1.08
2022-08-17T22:47:06.775Z,1.30
2022-08-17T22:49:53.513Z,1.30
2022-08-17T22:52:24.123Z,1.10
2022-08-17T22:55:32.311Z,1.05
2022-08-17T22:58:18.735Z,1.10
2022-08-17T23:00:49.227Z,0.82
2022-08-17T23:03:20.706Z,1.10
2022-08-17T23:06:10.073Z,1.00
2022-08-17T23:08:49.984Z,1.20
2022-08-17T23:11:17.183Z,1.25
2022-08-17T23:13:44.438Z,1.55
2022-08-17T23:16:11.414Z,1.42
2022-08-17T23:18:38.409Z,1.45
2022-08-17T23:21:07.344Z,1.40
2022-08-17T23:23:35.239Z,1.17
2022-08-17T23:26:02.275Z,1.20
2022-08-17T23:28:29.273Z,1.42
2022-08-17T23:30:56.405Z,1.55
2022-08-17T23:33:30.281Z,1.40
2022-08-17T23:35:58.832Z,1.35
2022-08-17T23:40:55.006Z,1.48
2022-08-17T23:43:25.613Z,1.30
2022-08-17T23:45:57.928Z,1.52
2022-08-17T23:48:28.645Z,1.38
2022-08-17T23:51:12.329Z,1.70
2022-08-17T23:53:44.760Z,1.83
2022-08-17T23:56:11.959Z,2.13
2022-08-17T23:58:43.654Z,2.40
